KTMB/TMB METAR and TAF weather

Enter ICAO airport designator
Station Type Date Time Source
KTMB METAR 2020/07/15 01:53 UTC NOAA

KTMB 150153Z AUTO 10SM CLR 29/23 A3007 RMK AO2 SLP183 T02890233


Station Type Date Time Source
KTMB Decoded METAR 2020/07/15 01:53 UTC NOAA

KENDALL-TAMIAMI EXEC AIRPORT , FL, United States (KTMB) 25-39N 080-26W 2M
Jul 14, 2020 - 09:53 PM EDT / 2020.07.15 0153 UTC
Visibility: 10 mile(s):0
Sky conditions: clear
Temperature: 84.0 F (28.9 C)
Dew Point: 73.9 F (23.3 C)
Relative Humidity: 71%
Pressure (altimeter): 30.07 in. Hg (1018 hPa)
ob: KTMB 150153Z AUTO 10SM CLR 29/23 A3007 RMK AO2 SLP183 T02890233
cycle: 2

Station Type Date Time Source
KTMB TAF 2020/07/14 21:39 UTC NOAA

TAF
AMD KTMB 142037Z 1421/1518 14010KT P6SM VCTS SCT035CB SCT250
FM150200 VRB04KT P6SM SCT030
FM151600 04008KT P6SM SCT040 SCT250

Example: see airport list